< < Back
Terminal Aerodrome Forecast


Current Version              Previous Versions:   1  2  3  4  5  6  7  8  9  

Terminal Aerodrome Forecast

317
FTUS42 KILM 010500
TAFILM
TAF
KILM 010522Z 0106/0206 22004KT P6SM SCT015 SCT025
      TEMPO 0108/0112 BKN015
     FM011700 18008KT P6SM SCT040 SCT150=



Latest METAR

376
SAUS70 KWBC 020200 RRN
MTRILM
METAR KILM 020153Z AUTO 20005KT 10SM CLR 27/24 A3008 RMK AO2 SLP185
T02670239


USA.gov is the U.S. government's official web portal to all federal, state and local government web resources and services.